Time;durP1;ratioP1;P1;durP2;ratioP2;P2;SDS_P1;SDS_P2;PMS_P1;PMS_P2;Temp;Humidity;BMP_temperature;BMP_pressure;BME280_temperature;BME280_humidity;BME280_pressure;Samples;Min_cycle;Max_cycle;Signal;HPM_P1;HPM_P2
2022/12/03 00:01:13;;;;;;;41.03;14.50;;;0.40;99.90;;;;;;5098621;28;20069;-68
2022/12/03 00:03:40;;;;;;;41.65;13.65;;;0.40;99.90;;;;;;5099536;28;20102;-68
2022/12/03 00:06:07;;;;;;;36.63;12.95;;;0.40;99.90;;;;;;5098887;28;20050;-68
2022/12/03 00:08:34;;;;;;;46.80;16.02;;;0.40;99.90;;;;;;5099005;28;20024;-68
2022/12/03 00:11:01;;;;;;;39.00;13.15;;;0.40;99.90;;;;;;5080708;28;20026;-68
2022/12/03 00:13:28;;;;;;;42.00;14.18;;;0.40;99.90;;;;;;5099174;28;20030;-68
2022/12/03 00:15:55;;;;;;;34.58;12.43;;;0.40;99.90;;;;;;5097768;28;20027;-68
2022/12/03 00:18:22;;;;;;;34.92;11.85;;;0.40;99.90;;;;;;5079993;28;20028;-68
2022/12/03 00:20:49;;;;;;;28.80;10.15;;;0.40;99.90;;;;;;5080499;28;20320;-68
2022/12/03 00:23:17;;;;;;;35.22;12.20;;;0.40;99.90;;;;;;5098752;28;20388;-68
2022/12/03 00:25:44;;;;;;;26.88;10.60;;;0.40;99.90;;;;;;5098394;28;20074;-68
2022/12/03 00:28:12;;;;;;;31.13;9.98;;;0.40;99.90;;;;;;5098514;28;20020;-68
2022/12/03 00:30:40;;;;;;;26.02;9.70;;;0.40;99.90;;;;;;5099114;28;20282;-68
2022/12/03 00:33:07;;;;;;;26.60;9.63;;;0.40;99.90;;;;;;5080346;28;20123;-68
2022/12/03 00:35:35;;;;;;;28.90;9.48;;;0.40;99.90;;;;;;5098142;28;20017;-68
2022/12/03 00:38:02;;;;;;;26.38;9.55;;;0.30;99.90;;;;;;5098859;28;20017;-68
2022/12/03 00:40:30;;;;;;;26.23;9.82;;;0.30;99.90;;;;;;5098556;28;20020;-68
2022/12/03 00:42:57;;;;;;;21.85;8.13;;;0.30;99.90;;;;;;5098333;28;20020;-68
2022/12/03 00:45:25;;;;;;;28.02;8.10;;;0.30;99.90;;;;;;5098000;28;20091;-68
2022/12/03 00:47:52;;;;;;;28.77;10.30;;;0.30;99.90;;;;;;5098482;28;20020;-68
2022/12/03 00:50:19;;;;;;;22.13;8.63;;;0.30;99.90;;;;;;5080023;28;20451;-68
2022/12/03 00:52:48;;;;;;;26.40;9.50;;;0.30;99.90;;;;;;5079824;28;20038;-68
2022/12/03 00:55:16;;;;;;;23.13;9.70;;;0.30;99.90;;;;;;5097851;28;20024;-68
2022/12/03 00:57:43;;;;;;;27.48;10.25;;;0.30;99.90;;;;;;5097778;28;20351;-68
2022/12/03 01:00:12;;;;;;;25.42;8.57;;;0.20;99.90;;;;;;5097780;28;20020;-68
2022/12/03 01:02:39;;;;;;;25.23;9.25;;;0.20;99.90;;;;;;5097551;28;20036;-68
2022/12/03 01:05:07;;;;;;;31.25;9.68;;;0.20;99.90;;;;;;5079627;28;20111;-68
2022/12/03 01:07:35;;;;;;;23.23;10.23;;;0.20;99.90;;;;;;5098171;28;20048;-68
2022/12/03 01:10:04;;;;;;;29.42;10.55;;;0.20;99.90;;;;;;5098266;28;20495;-68
2022/12/03 01:12:31;;;;;;;24.55;10.43;;;0.20;99.90;;;;;;5097500;28;20024;-68
2022/12/03 01:14:59;;;;;;;24.77;9.88;;;0.10;99.90;;;;;;5097721;28;20028;-68
2022/12/03 01:17:26;;;;;;;23.65;9.80;;;0.10;99.90;;;;;;5079431;28;20450;-68
2022/12/03 01:19:53;;;;;;;23.65;10.77;;;0.10;99.90;;;;;;5097890;28;20030;-68
2022/12/03 01:22:21;;;;;;;24.77;9.00;;;0.10;99.90;;;;;;5079283;28;20485;-68
2022/12/03 01:24:48;;;;;;;28.23;10.15;;;0.10;99.90;;;;;;5097335;28;20020;-68
2022/12/03 01:27:15;;;;;;;31.75;12.48;;;0.10;99.90;;;;;;5097520;28;20046;-68
2022/12/03 01:29:43;;;;;;;24.52;9.13;;;0.10;99.90;;;;;;5096381;28;20328;-68
2022/12/03 01:32:18;;;;;;;34.03;11.82;;;0.10;99.90;;;;;;5079141;28;20135;-68
2022/12/03 01:34:51;;;;;;;24.40;9.35;;;0.00;99.90;;;;;;5097626;28;20016;-68
2022/12/03 01:37:19;;;;;;;28.80;11.25;;;0.00;99.90;;;;;;5079093;28;20415;-68
2022/12/03 01:39:47;;;;;;;29.77;10.60;;;0.00;99.90;;;;;;5097151;28;20024;-68
2022/12/03 01:42:33;;;;;;;24.77;9.10;;;0.00;99.90;;;;;;5097030;28;20020;-68
2022/12/03 01:45:01;;;;;;;25.67;10.82;;;0.00;99.90;;;;;;5097684;28;20076;-68
2022/12/03 01:47:31;;;;;;;30.08;11.57;;;0.00;99.90;;;;;;5097477;28;20024;-68
2022/12/03 01:50:07;;;;;;;25.85;9.98;;;0.00;99.90;;;;;;5096856;28;20016;-68
2022/12/03 01:52:38;;;;;;;24.80;10.35;;;0.00;99.90;;;;;;5097450;28;20456;-68
2022/12/03 01:55:13;;;;;;;26.85;9.85;;;0.00;99.90;;;;;;5097006;28;20024;-68
2022/12/03 01:57:47;;;;;;;37.28;11.32;;;0.00;99.90;;;;;;5097363;28;20105;-68
2022/12/03 02:00:22;;;;;;;28.08;11.15;;;0.00;99.90;;;;;;5062162;28;20054;-68
2022/12/03 02:02:53;;;;;;;30.88;12.60;;;0.00;99.90;;;;;;5076471;28;20085;-68
2022/12/03 02:05:29;;;;;;;31.58;13.25;;;0.00;99.90;;;;;;5076631;28;20343;-68
2022/12/03 02:07:57;;;;;;;30.88;10.43;;;0.00;99.90;;;;;;5077023;28;20120;-68
2022/12/03 02:10:35;;;;;;;29.23;10.50;;;0.00;99.90;;;;;;5076360;28;20321;-68
2022/12/03 02:13:07;;;;;;;24.70;9.30;;;-0.10;99.90;;;;;;5077127;28;20024;-68
2022/12/03 02:15:38;;;;;;;31.95;11.43;;;0.00;99.90;;;;;;5076358;28;20028;-68
2022/12/03 02:18:06;;;;;;;34.53;11.43;;;0.00;99.90;;;;;;5076374;28;20028;-68
2022/12/03 02:20:52;;;;;;;30.67;12.02;;;0.00;99.90;;;;;;5076204;28;20427;-68
2022/12/03 02:23:32;;;;;;;31.05;11.88;;;0.00;99.90;;;;;;5076507;28;20099;-68
2022/12/03 02:25:59;;;;;;;27.65;11.38;;;-0.10;99.90;;;;;;5076789;28;20017;-68
2022/12/03 02:28:27;;;;;;;32.45;12.13;;;-0.10;99.90;;;;;;5058490;28;20420;-68
2022/12/03 02:30:55;;;;;;;31.27;12.02;;;-0.10;99.90;;;;;;5076220;28;20052;-68
2022/12/03 02:33:22;;;;;;;37.92;13.27;;;-0.10;99.90;;;;;;5058575;28;20027;-68
2022/12/03 02:35:50;;;;;;;38.90;12.57;;;-0.10;99.90;;;;;;5058373;28;20107;-68
2022/12/03 02:38:24;;;;;;;39.85;14.90;;;-0.10;99.90;;;;;;5076118;28;20444;-68
2022/12/03 02:40:57;;;;;;;37.15;13.55;;;-0.10;99.90;;;;;;5077719;28;20051;-68
2022/12/03 02:43:25;;;;;;;36.88;12.77;;;-0.20;99.90;;;;;;5062316;28;20043;-68
2022/12/03 02:45:58;;;;;;;42.75;14.65;;;-0.20;99.90;;;;;;5062272;28;20024;-68
2022/12/03 02:48:37;;;;;;;42.85;15.32;;;-0.20;99.90;;;;;;5080447;28;20070;-68
2022/12/03 02:51:10;;;;;;;35.55;13.32;;;-0.20;99.90;;;;;;5062120;28;20020;-68
2022/12/03 02:53:43;;;;;;;45.35;13.90;;;-0.10;99.90;;;;;;5079835;28;20403;-68
2022/12/03 02:56:16;;;;;;;37.40;14.02;;;-0.20;99.90;;;;;;5079706;28;20078;-68
2022/12/03 02:58:46;;;;;;;42.90;14.43;;;-0.20;99.90;;;;;;5080403;28;20028;-68
2022/12/03 03:01:14;;;;;;;39.72;15.30;;;-0.20;99.90;;;;;;5086684;28;20089;-68
2022/12/03 03:03:42;;;;;;;40.53;14.45;;;-0.20;99.90;;;;;;5100195;28;20026;-68
2022/12/03 03:06:10;;;;;;;37.53;14.23;;;-0.20;99.90;;;;;;5099871;28;20020;-68
2022/12/03 03:08:41;;;;;;;36.30;12.32;;;-0.20;99.90;;;;;;5100624;28;20108;-68
2022/12/03 03:11:09;;;;;;;36.75;13.25;;;-0.20;99.90;;;;;;5100399;28;20081;-68
2022/12/03 03:13:37;;;;;;;46.03;15.10;;;-0.20;99.90;;;;;;5100376;28;20073;-68
2022/12/03 03:16:06;;;;;;;46.30;15.45;;;-0.20;99.90;;;;;;5099767;28;20055;-68
2022/12/03 03:18:34;;;;;;;38.28;15.68;;;-0.20;99.90;;;;;;5100378;28;20052;-68
2022/12/03 03:21:02;;;;;;;41.47;15.25;;;-0.20;99.90;;;;;;5081583;28;20065;-68
2022/12/03 03:23:30;;;;;;;45.22;15.23;;;-0.20;99.90;;;;;;5099565;28;20077;-68
2022/12/03 03:26:05;;;;;;;38.17;13.45;;;-0.10;99.90;;;;;;5099510;28;20088;-68
2022/12/03 03:28:36;;;;;;;40.30;14.57;;;-0.10;99.90;;;;;;5099961;28;20021;-68
2022/12/03 03:31:06;;;;;;;44.55;14.35;;;-0.10;99.90;;;;;;5082159;28;20024;-68
2022/12/03 03:33:33;;;;;;;42.20;14.90;;;-0.10;99.90;;;;;;5100029;28;20073;-68
2022/12/03 03:36:01;;;;;;;40.55;13.48;;;-0.10;99.90;;;;;;5081354;28;20020;-68
2022/12/03 03:38:29;;;;;;;35.05;13.70;;;-0.20;99.90;;;;;;5099947;28;20024;-68
2022/12/03 03:40:58;;;;;;;39.53;13.45;;;-0.10;99.90;;;;;;5099309;28;20024;-68
2022/12/03 03:43:26;;;;;;;32.15;12.07;;;-0.20;99.90;;;;;;5099844;28;20020;-68
2022/12/03 03:45:54;;;;;;;37.78;12.63;;;-0.20;99.90;;;;;;5099182;28;20359;-68
2022/12/03 03:48:22;;;;;;;32.63;12.48;;;-0.20;99.90;;;;;;5099801;28;20024;-68
2022/12/03 03:50:50;;;;;;;35.70;12.82;;;-0.20;99.90;;;;;;5099055;28;20027;-68
2022/12/03 03:53:19;;;;;;;37.22;13.48;;;-0.20;99.90;;;;;;5098465;28;20020;-68
2022/12/03 03:55:46;;;;;;;39.65;13.50;;;-0.20;99.90;;;;;;5099010;28;20019;-68
2022/12/03 03:58:13;;;;;;;34.55;13.57;;;-0.20;99.90;;;;;;5081775;28;20024;-68
2022/12/03 04:00:43;;;;;;;38.53;11.63;;;-0.20;99.90;;;;;;5080768;28;20024;-68
2022/12/03 04:03:11;;;;;;;40.78;13.80;;;-0.20;99.90;;;;;;5098853;28;20065;-68
2022/12/03 04:05:38;;;;;;;38.10;13.30;;;-0.20;99.90;;;;;;5080803;28;20024;-68
2022/12/03 04:08:06;;;;;;;38.50;12.90;;;-0.20;99.90;;;;;;5099299;28;20099;-68
2022/12/03 04:13:19;;;;;;;40.53;13.83;;;-0.30;99.90;;;;;;5099148;28;20026;-68
2022/12/03 04:15:46;;;;;;;35.00;12.07;;;-0.30;99.90;;;;;;5099114;28;20024;-68
2022/12/03 04:23:46;;;;;;;35.33;13.17;;;-0.30;99.90;;;;;;5098681;28;20470;-68
2022/12/03 04:28:59;;;;;;;36.15;12.32;;;-0.30;99.90;;;;;;5098672;28;20081;-68
2022/12/03 04:36:58;;;;;;;32.37;12.13;;;-0.30;99.90;;;;;;5098270;28;20351;-68
2022/12/03 04:39:26;;;;;;;35.22;12.32;;;-0.30;99.90;;;;;;5098348;28;20057;-68
2022/12/03 04:41:53;;;;;;;35.75;12.50;;;-0.30;99.90;;;;;;5098613;28;20027;-68
2022/12/03 04:44:36;;;;;;;35.45;12.40;;;-0.30;99.90;;;;;;5098075;28;20500;-68
2022/12/03 04:47:12;;;;;;;33.75;11.98;;;-0.30;99.90;;;;;;5097992;28;20321;-68
2022/12/03 04:49:41;;;;;;;42.95;13.00;;;-0.30;99.90;;;;;;5098621;28;20073;-68
2022/12/03 04:52:11;;;;;;;37.10;12.57;;;-0.30;99.90;;;;;;5098162;28;20416;-68
2022/12/03 04:54:39;;;;;;;36.88;13.27;;;-0.40;99.90;;;;;;5098446;28;20020;-68
2022/12/03 04:57:07;;;;;;;32.97;12.93;;;-0.40;99.90;;;;;;5079817;28;20028;-68
2022/12/03 04:59:35;;;;;;;35.47;11.80;;;-0.40;99.90;;;;;;5097839;28;20332;-68
2022/12/03 05:02:04;;;;;;;39.75;11.95;;;-0.40;99.90;;;;;;5097715;28;20042;-68
2022/12/03 05:04:32;;;;;;;37.88;13.95;;;-0.40;99.90;;;;;;5097588;28;20019;-69
2022/12/03 05:06:59;;;;;;;34.08;11.68;;;-0.40;99.90;;;;;;5098178;28;20020;-68
2022/12/03 05:09:27;;;;;;;39.05;13.48;;;-0.40;99.90;;;;;;5097784;28;20024;-68
2022/12/03 05:11:54;;;;;;;29.15;10.75;;;-0.40;99.90;;;;;;5097545;28;20087;-68
2022/12/03 05:14:22;;;;;;;38.80;12.90;;;-0.40;99.90;;;;;;5098031;28;20069;-68
2022/12/03 05:16:49;;;;;;;34.13;11.55;;;-0.40;99.90;;;;;;5079445;28;20462;-68
2022/12/03 05:19:17;;;;;;;40.70;14.30;;;-0.40;99.90;;;;;;5097630;28;20428;-68
2022/12/03 05:21:44;;;;;;;36.90;12.57;;;-0.40;99.90;;;;;;5097362;28;20023;-68
2022/12/03 05:24:11;;;;;;;40.45;13.05;;;-0.40;99.90;;;;;;5097297;28;20093;-68
2022/12/03 05:26:39;;;;;;;36.90;14.32;;;-0.40;99.90;;;;;;5097604;28;20079;-68
2022/12/03 05:29:07;;;;;;;36.50;12.98;;;-0.40;99.90;;;;;;5097827;28;20111;-68
2022/12/03 05:31:34;;;;;;;39.47;14.20;;;-0.40;99.90;;;;;;5097752;28;20024;-68
2022/12/03 05:34:01;;;;;;;36.25;13.82;;;-0.40;99.90;;;;;;5062902;28;20074;-68
2022/12/03 05:36:29;;;;;;;35.60;13.73;;;-0.40;99.90;;;;;;5097047;28;20112;-68
2022/12/03 05:38:56;;;;;;;35.65;12.63;;;-0.40;99.90;;;;;;5097907;28;20024;-68
2022/12/03 05:44:09;;;;;;;37.28;13.25;;;-0.30;99.90;;;;;;5097694;28;20027;-68
2022/12/03 05:46:36;;;;;;;41.25;13.40;;;-0.30;99.90;;;;;;5097486;28;20016;-68
2022/12/03 05:49:04;;;;;;;37.67;13.85;;;-0.30;99.90;;;;;;5096908;28;20111;-68
2022/12/03 05:51:31;;;;;;;33.88;12.48;;;-0.30;99.90;;;;;;5096807;28;20016;-68
2022/12/03 05:53:58;;;;;;;40.80;13.88;;;-0.30;99.90;;;;;;5096950;28;20030;-68
2022/12/03 05:56:25;;;;;;;34.65;12.88;;;-0.30;99.90;;;;;;5078887;28;20028;-68
2022/12/03 05:58:53;;;;;;;36.17;13.68;;;-0.30;99.90;;;;;;5096745;28;20020;-68
2022/12/03 06:01:20;;;;;;;42.85;14.27;;;-0.30;99.90;;;;;;5096713;28;20533;-68
2022/12/03 06:03:48;;;;;;;44.22;14.43;;;-0.30;99.90;;;;;;5098341;28;20047;-68
2022/12/03 06:06:15;;;;;;;42.17;13.18;;;-0.30;99.90;;;;;;5096667;28;20031;-68
2022/12/03 06:08:42;;;;;;;40.92;13.38;;;-0.30;99.90;;;;;;5097250;28;20039;-68
2022/12/03 06:11:10;;;;;;;30.92;10.57;;;-0.30;99.90;;;;;;5096594;28;20074;-68
2022/12/03 06:13:37;;;;;;;32.20;11.77;;;-0.30;99.90;;;;;;5078879;28;20151;-68
2022/12/03 06:16:04;;;;;;;36.40;12.07;;;-0.30;99.90;;;;;;5101286;28;20439;-68
2022/12/03 06:18:31;;;;;;;38.42;13.00;;;-0.30;99.90;;;;;;5103790;28;20016;-68
2022/12/03 06:20:59;;;;;;;49.72;13.60;;;-0.30;99.90;;;;;;5103428;28;20325;-68
2022/12/03 06:23:26;;;;;;;33.78;11.18;;;-0.30;99.90;;;;;;5103993;28;20055;-68
2022/12/03 06:25:53;;;;;;;41.58;13.65;;;-0.30;99.90;;;;;;5103829;28;20023;-68
2022/12/03 06:28:21;;;;;;;37.88;13.38;;;-0.30;99.90;;;;;;5103824;28;20012;-68
2022/12/03 06:30:48;;;;;;;39.13;12.88;;;-0.30;99.90;;;;;;5103226;28;20016;-68
2022/12/03 06:33:15;;;;;;;37.83;11.82;;;-0.30;99.90;;;;;;5085215;28;20050;-68
2022/12/03 06:35:43;;;;;;;37.72;10.80;;;-0.30;99.90;;;;;;5085114;28;20020;-68
2022/12/03 06:38:10;;;;;;;36.00;11.60;;;-0.30;99.90;;;;;;5085160;28;20020;-71
2022/12/03 06:40:37;;;;;;;44.55;12.93;;;-0.30;99.90;;;;;;5103103;28;20428;-68
2022/12/03 06:43:04;;;;;;;38.20;11.90;;;-0.30;99.90;;;;;;5103804;28;20016;-71
2022/12/03 06:45:31;;;;;;;44.42;12.98;;;-0.40;99.90;;;;;;5103061;28;20020;-69
2022/12/03 06:47:59;;;;;;;40.38;13.35;;;-0.40;99.90;;;;;;5103253;28;20028;-71
2022/12/03 06:50:26;;;;;;;33.95;11.35;;;-0.40;99.90;;;;;;5103508;28;20024;-69
2022/12/03 06:52:53;;;;;;;39.75;13.18;;;-0.40;99.90;;;;;;5103623;28;20024;-72
2022/12/03 06:55:21;;;;;;;45.90;12.60;;;-0.40;99.90;;;;;;5103006;28;20016;-77
2022/12/03 06:57:48;;;;;;;34.03;10.68;;;-0.40;99.90;;;;;;5103649;28;20035;-77
2022/12/03 07:00:16;;;;;;;32.35;10.82;;;-0.40;99.90;;;;;;5084896;28;20415;-76
2022/12/03 07:02:43;;;;;;;40.83;11.50;;;-0.40;99.90;;;;;;5102805;28;20052;-74
2022/12/03 07:05:12;;;;;;;30.38;11.13;;;-0.40;99.90;;;;;;5084904;28;20107;-74
2022/12/03 07:07:39;;;;;;;34.83;11.90;;;-0.40;99.90;;;;;;5103607;28;20055;-72
2022/12/03 07:10:22;;;;;;;33.38;9.77;;;-0.50;99.90;;;;;;5058840;28;20043;-72
2022/12/03 07:12:50;;;;;;;26.40;11.10;;;-0.40;99.90;;;;;;5103468;28;20016;-71
2022/12/03 07:15:18;;;;;;;36.53;12.88;;;-0.50;99.90;;;;;;5085004;28;20111;-71
2022/12/03 07:17:45;;;;;;;40.53;12.02;;;-0.50;99.90;;;;;;5103196;28;20032;-71
2022/12/03 07:20:13;;;;;;;29.20;11.77;;;-0.50;99.90;;;;;;5103182;28;20036;-73
2022/12/03 07:22:40;;;;;;;38.45;12.25;;;-0.50;99.90;;;;;;5103078;28;20016;-73
2022/12/03 07:25:07;;;;;;;31.95;12.82;;;-0.60;99.90;;;;;;5084774;28;20116;-75
2022/12/03 07:27:35;;;;;;;34.55;11.45;;;-0.50;99.90;;;;;;5100090;28;20020;-75
2022/12/03 07:30:03;;;;;;;31.20;11.20;;;-0.50;99.90;;;;;;5081529;28;20020;-75
2022/12/03 07:32:30;;;;;;;31.75;11.70;;;-0.50;99.90;;;;;;5099726;28;20111;-76
2022/12/03 07:34:57;;;;;;;34.60;12.32;;;-0.50;99.90;;;;;;5099333;28;20332;-76
2022/12/03 07:37:24;;;;;;;35.85;13.30;;;-0.50;99.90;;;;;;5099934;28;20043;-76
2022/12/03 07:39:53;;;;;;;35.25;12.73;;;-0.50;99.90;;;;;;5081502;28;20024;-71
2022/12/03 07:42:20;;;;;;;29.67;11.52;;;-0.50;99.90;;;;;;5099829;28;20106;-69
2022/12/03 07:44:48;;;;;;;36.15;12.98;;;-0.50;99.90;;;;;;5099265;28;20024;-69
2022/12/03 07:47:15;;;;;;;41.97;13.30;;;-0.50;99.90;;;;;;5099198;28;20065;-69
2022/12/03 07:49:42;;;;;;;39.80;13.68;;;-0.50;99.90;;;;;;5099249;28;20031;-68
2022/12/03 07:52:10;;;;;;;33.67;13.70;;;-0.40;99.90;;;;;;5099034;28;20042;-75
2022/12/03 07:54:38;;;;;;;38.75;14.35;;;-0.40;99.90;;;;;;5081069;28;20028;-69
2022/12/03 07:57:05;;;;;;;38.28;15.68;;;-0.40;99.90;;;;;;5098975;28;20028;-68
2022/12/03 07:59:33;;;;;;;42.85;16.83;;;-0.40;99.90;;;;;;5099067;28;20024;-68
2022/12/03 08:02:01;;;;;;;41.38;16.08;;;-0.40;99.90;;;;;;5098926;28;20044;-68
2022/12/03 08:04:28;;;;;;;44.42;14.95;;;-0.40;99.90;;;;;;5098754;28;20032;-68
2022/12/03 08:06:56;;;;;;;36.67;14.32;;;-0.40;99.90;;;;;;5099365;28;20016;-68
2022/12/03 08:09:23;;;;;;;34.45;12.68;;;-0.40;99.90;;;;;;5098950;28;20034;-68
2022/12/03 08:11:51;;;;;;;42.60;16.90;;;-0.40;99.90;;;;;;5099261;28;20054;-68
2022/12/03 08:14:19;;;;;;;46.83;16.52;;;-0.30;99.90;;;;;;5080702;28;20028;-68
2022/12/03 08:16:47;;;;;;;41.00;15.32;;;-0.30;99.90;;;;;;5098853;28;20024;-68
2022/12/03 08:19:16;;;;;;;38.45;15.35;;;-0.30;99.90;;;;;;5098435;28;20025;-68
2022/12/03 08:21:45;;;;;;;48.00;16.33;;;-0.20;99.90;;;;;;5099079;28;20012;-68
2022/12/03 08:24:18;;;;;;;41.60;15.38;;;-0.20;99.90;;;;;;5098463;28;20435;-67
2022/12/03 08:26:47;;;;;;;42.90;16.08;;;-0.20;99.90;;;;;;5080475;28;20028;-66
2022/12/03 08:29:19;;;;;;;45.22;15.77;;;-0.10;99.90;;;;;;5080444;28;20040;-68
2022/12/03 08:31:53;;;;;;;45.05;16.90;;;-0.10;99.90;;;;;;5080385;28;20057;-68
2022/12/03 08:34:26;;;;;;;35.13;15.38;;;0.00;99.90;;;;;;5098186;28;20035;-68
2022/12/03 08:37:01;;;;;;;37.63;14.85;;;0.00;99.90;;;;;;5098771;28;20024;-68
2022/12/03 08:39:32;;;;;;;51.83;16.35;;;0.00;99.90;;;;;;5079806;28;20347;-68
2022/12/03 08:45:39;;;;;;;37.95;15.25;;;0.10;99.90;;;;;;5098647;28;20086;-68
2022/12/03 08:48:26;;;;;;;34.47;13.48;;;0.10;99.90;;;;;;5080119;28;20024;-68
2022/12/03 08:50:56;;;;;;;37.90;12.95;;;0.10;99.90;;;;;;5097891;28;20016;-68
2022/12/03 08:53:29;;;;;;;33.78;13.57;;;0.10;99.90;;;;;;5098176;28;20012;-68
2022/12/03 08:56:00;;;;;;;31.77;11.57;;;0.20;99.90;;;;;;5098427;28;20024;-67
2022/12/03 08:58:42;;;;;;;34.08;12.95;;;0.20;99.90;;;;;;5098346;28;20361;-67
2022/12/03 09:01:13;;;;;;;31.67;12.15;;;0.20;99.90;;;;;;5097603;28;20047;-68
2022/12/03 09:03:55;;;;;;;32.30;12.63;;;0.20;99.90;;;;;;5098461;28;20024;-67
2022/12/03 09:06:23;;;;;;;35.08;12.60;;;0.30;99.90;;;;;;5097585;28;20426;-67
2022/12/03 09:08:50;;;;;;;26.15;12.98;;;0.30;99.90;;;;;;5098097;28;20081;-68
2022/12/03 09:11:18;;;;;;;25.15;10.48;;;0.30;99.90;;;;;;5097537;28;20027;-72
2022/12/03 09:13:45;;;;;;;20.60;9.55;;;0.40;99.90;;;;;;5097764;28;20020;-68
2022/12/03 09:16:13;;;;;;;25.40;11.77;;;0.40;99.90;;;;;;5097477;28;20027;-67
2022/12/03 09:18:41;;;;;;;26.10;11.18;;;0.40;99.90;;;;;;5097631;28;20347;-69
2022/12/03 09:21:09;;;;;;;23.75;10.82;;;0.40;99.90;;;;;;5097310;28;20048;-79
2022/12/03 09:23:36;;;;;;;26.10;10.70;;;0.40;99.90;;;;;;5097530;28;20016;-67
2022/12/03 09:26:04;;;;;;;23.20;9.70;;;0.40;99.90;;;;;;5097280;28;20361;-68
2022/12/03 09:28:32;;;;;;;27.05;10.88;;;0.30;99.90;;;;;;5097857;28;20021;-67
2022/12/03 09:30:59;;;;;;;24.20;10.10;;;0.30;99.90;;;;;;5097591;28;20024;-70
2022/12/03 09:33:26;;;;;;;22.10;9.50;;;0.30;99.90;;;;;;5097869;28;20339;-68
2022/12/03 09:35:54;;;;;;;23.83;8.95;;;0.30;99.90;;;;;;5097273;28;20020;-68
2022/12/03 09:38:21;;;;;;;22.45;9.60;;;0.30;99.90;;;;;;5079102;28;20020;-69
2022/12/03 09:40:49;;;;;;;21.15;9.20;;;0.40;99.90;;;;;;5097061;28;20020;-73
2022/12/03 09:43:17;;;;;;;23.95;8.68;;;0.40;99.90;;;;;;5097822;28;20024;-69
2022/12/03 09:45:48;;;;;;;20.33;9.65;;;0.40;99.90;;;;;;5079588;28;20020;-67
2022/12/03 09:48:18;;;;;;;26.75;10.45;;;0.40;99.90;;;;;;5097701;28;20024;-68
2022/12/03 09:50:45;;;;;;;26.23;11.00;;;0.40;99.90;;;;;;5096175;28;20031;-68
2022/12/03 09:53:20;;;;;;;20.33;8.77;;;0.40;99.90;;;;;;5096839;28;20019;-67
2022/12/03 09:55:49;;;;;;;26.45;10.38;;;0.40;99.90;;;;;;5096767;28;20024;-67
2022/12/03 09:58:17;;;;;;;25.15;10.57;;;0.40;99.90;;;;;;5096881;28;20027;-67
2022/12/03 10:00:51;;;;;;;25.23;10.27;;;0.50;99.90;;;;;;5096927;28;20020;-68
2022/12/03 10:03:22;;;;;;;26.13;11.50;;;0.50;99.90;;;;;;5096694;28;20473;-67
2022/12/03 10:05:52;;;;;;;27.33;10.43;;;0.50;99.90;;;;;;5096804;28;20016;-67
2022/12/03 10:08:21;;;;;;;23.45;11.02;;;0.50;99.90;;;;;;5096847;28;20414;-67
2022/12/03 10:10:55;;;;;;;26.48;11.23;;;0.50;99.90;;;;;;5097150;28;20023;-67
2022/12/03 10:13:29;;;;;;;28.08;11.07;;;0.50;99.90;;;;;;5097254;28;20103;-67
2022/12/03 10:15:59;;;;;;;27.38;11.93;;;0.60;99.90;;;;;;5096600;28;20033;-68
2022/12/03 10:18:34;;;;;;;25.33;10.75;;;0.60;99.90;;;;;;5096791;28;20024;-67
2022/12/03 10:21:01;;;;;;;27.33;11.70;;;0.60;99.90;;;;;;5096600;28;20025;-68
2022/12/03 10:23:30;;;;;;;37.15;12.65;;;0.60;99.90;;;;;;5096602;28;20400;-68
2022/12/03 10:26:04;;;;;;;36.65;14.80;;;0.60;99.90;;;;;;5096415;28;20039;-67
2022/12/03 10:28:40;;;;;;;35.88;13.25;;;0.60;99.90;;;;;;5096894;28;20020;-67
2022/12/03 10:31:11;;;;;;;35.15;13.73;;;0.60;99.90;;;;;;5096606;28;20020;-68
2022/12/03 10:33:44;;;;;;;34.00;12.68;;;0.50;99.90;;;;;;5078550;28;20024;-67
2022/12/03 10:36:22;;;;;;;35.67;14.75;;;0.60;99.90;;;;;;5096318;28;20100;-72
2022/12/03 10:39:13;;;;;;;33.38;13.88;;;0.50;99.90;;;;;;5096300;28;20406;-68
2022/12/03 10:41:42;;;;;;;34.17;12.00;;;0.50;99.90;;;;;;5096804;28;20012;-68
2022/12/03 10:44:18;;;;;;;36.78;13.25;;;0.50;99.90;;;;;;5097119;28;20034;-68
2022/12/03 10:47:05;;;;;;;32.28;13.43;;;0.50;99.90;;;;;;5096409;28;20064;-67
2022/12/03 10:49:33;;;;;;;30.83;12.32;;;0.50;99.90;;;;;;5078337;28;20332;-67
2022/12/03 10:52:01;;;;;;;31.25;12.43;;;0.50;99.90;;;;;;5096315;28;20047;-70
2022/12/03 10:54:30;;;;;;;32.55;13.80;;;0.50;99.90;;;;;;5096846;28;20024;-69
2022/12/03 10:56:58;;;;;;;38.35;14.48;;;0.40;99.90;;;;;;5078286;28;20051;-69
2022/12/03 10:59:31;;;;;;;36.17;14.57;;;0.40;99.90;;;;;;5096708;28;20307;-67
2022/12/03 11:01:58;;;;;;;40.95;15.73;;;0.40;99.90;;;;;;5076434;28;20052;-69
2022/12/03 11:04:34;;;;;;;38.13;14.88;;;0.40;99.90;;;;;;5079657;28;20479;-69
2022/12/03 11:07:17;;;;;;;34.85;13.75;;;0.40;99.90;;;;;;5079650;28;20027;-67
2022/12/03 11:09:51;;;;;;;37.50;14.73;;;0.40;99.90;;;;;;5079663;28;20037;-69
2022/12/03 11:12:22;;;;;;;36.75;15.10;;;0.30;99.90;;;;;;5079627;28;20025;-67
2022/12/03 11:14:49;;;;;;;34.85;13.55;;;0.40;99.90;;;;;;5079827;28;20379;-70
2022/12/03 11:17:47;;;;;;;34.25;13.68;;;0.30;99.90;;;;;;5078586;28;20020;-68
2022/12/03 11:20:16;;;;;;;;;;;0.40;99.90;;;;;;5079961;28;20437;-69
2022/12/03 11:22:47;;;;;;;33.08;11.80;;;0.30;99.90;;;;;;5079723;28;19904;-68
2022/12/03 11:25:26;;;;;;;32.47;14.65;;;0.30;99.90;;;;;;5079363;28;20074;-68
2022/12/03 11:28:15;;;;;;;37.20;14.50;;;0.30;99.90;;;;;;5080049;28;20020;-70
2022/12/03 11:30:52;;;;;;;34.65;14.05;;;0.40;99.90;;;;;;5078135;28;20158;-68
2022/12/03 11:33:24;;;;;;;35.00;14.75;;;0.40;99.90;;;;;;5079749;28;20289;-68
2022/12/03 11:36:04;;;;;;;36.70;14.25;;;0.40;99.90;;;;;;5079113;28;20555;-68
2022/12/03 11:38:43;;;;;;;34.65;14.85;;;0.40;99.90;;;;;;5079809;28;20028;-68
2022/12/03 11:41:13;;;;;;;33.67;13.23;;;0.40;99.90;;;;;;5079816;28;20036;-69
2022/12/03 11:43:56;;;;;;;34.50;14.25;;;0.40;99.90;;;;;;5079062;28;20021;-69
2022/12/03 11:46:43;;;;;;;36.03;13.77;;;0.40;99.90;;;;;;5079547;28;20024;-70
2022/12/03 11:49:25;;;;;;;;;;;0.40;99.90;;;;;;5078477;28;20025;-69
2022/12/03 11:51:52;;;;;;;32.85;13.65;;;0.50;99.90;;;;;;5078350;28;19904;-69
2022/12/03 11:54:22;;;;;;;38.22;13.00;;;0.50;99.90;;;;;;5079428;28;20035;-68
2022/12/03 11:56:51;;;;;;;35.15;14.85;;;0.50;99.90;;;;;;5077722;28;20028;-69
2022/12/03 11:59:19;;;;;;;35.42;13.95;;;0.50;99.90;;;;;;5078900;28;20111;-68
2022/12/03 12:01:47;;;;;;;33.10;13.93;;;0.50;99.90;;;;;;5089638;28;20044;-68
2022/12/03 12:04:32;;;;;;;36.45;13.32;;;0.50;99.90;;;;;;5099454;28;20077;-68
2022/12/03 12:07:01;;;;;;;38.75;14.85;;;0.50;99.90;;;;;;5081747;28;20050;-69
2022/12/03 12:09:50;;;;;;;35.65;14.10;;;0.50;99.90;;;;;;5080873;28;20059;-70
2022/12/03 12:12:27;;;;;;;36.67;14.80;;;0.50;99.90;;;;;;5099017;28;20432;-68
2022/12/03 12:14:55;;;;;;;37.28;14.25;;;0.50;99.90;;;;;;5098750;28;20111;-68
2022/12/03 12:17:36;;;;;;;39.22;14.68;;;0.50;99.90;;;;;;5098848;28;20031;-68
2022/12/03 12:20:23;;;;;;;35.53;13.68;;;0.40;99.90;;;;;;5080198;28;20040;-68
2022/12/03 12:22:54;;;;;;;37.45;14.95;;;0.40;99.90;;;;;;5080759;28;20020;-71
2022/12/03 12:25:38;;;;;;;39.60;15.82;;;0.40;99.90;;;;;;5098478;28;20012;-68
2022/12/03 12:28:06;;;;;;;36.13;16.08;;;0.40;99.90;;;;;;5098383;28;20016;-69
2022/12/03 12:30:34;;;;;;;40.63;14.52;;;0.40;99.90;;;;;;5098372;28;20035;-73
2022/12/03 12:33:32;;;;;;;40.55;16.17;;;0.40;99.90;;;;;;5080500;28;20024;-69
2022/12/03 12:36:01;;;;;;;47.50;17.55;;;0.40;99.90;;;;;;5098513;28;20028;-69
2022/12/03 12:38:29;;;;;;;51.13;20.27;;;0.40;99.90;;;;;;5098824;28;20035;-67
2022/12/03 12:40:57;;;;;;;44.83;16.25;;;0.30;99.90;;;;;;5098095;28;20024;-71
2022/12/03 12:43:27;;;;;;;47.13;17.25;;;0.30;99.90;;;;;;5081068;28;20503;-68
2022/12/03 12:45:58;;;;;;;43.58;16.58;;;0.40;99.90;;;;;;5098632;28;20047;-70
2022/12/03 12:48:34;;;;;;;47.38;15.85;;;0.30;99.90;;;;;;5098670;28;20020;-69
2022/12/03 12:51:20;;;;;;;43.10;17.83;;;0.30;99.90;;;;;;5097922;28;20012;-67
2022/12/03 12:53:49;;;;;;;41.67;16.35;;;0.40;99.90;;;;;;5080122;28;20024;-70
2022/12/03 12:56:29;;;;;;;44.67;16.35;;;0.40;99.90;;;;;;5079898;28;20020;-69
2022/12/03 12:59:17;;;;;;;41.17;16.02;;;0.40;99.90;;;;;;5098393;28;21959;-69
2022/12/03 13:01:50;;;;;;;47.17;18.08;;;0.40;99.90;;;;;;5076201;28;20450;-70
2022/12/03 13:04:23;;;;;;;44.90;17.65;;;0.30;99.90;;;;;;5076563;28;20060;-69
2022/12/03 13:06:53;;;;;;;42.83;16.20;;;0.30;99.90;;;;;;5077340;28;20364;-70
2022/12/03 13:09:23;;;;;;;41.53;16.13;;;0.30;99.90;;;;;;5077632;28;20087;-71
2022/12/03 13:12:02;;;;;;;44.90;17.30;;;0.30;99.90;;;;;;5077291;28;20029;-69